createdAt,value
2018-11-13T00:00:07.615Z,20.4
2018-11-13T00:00:57.903Z,20.4
2018-11-13T00:01:47.453Z,20.4
2018-11-13T00:02:37.507Z,20.4
2018-11-13T00:03:28.047Z,20.4
2018-11-13T00:04:18.105Z,20.4
2018-11-13T00:05:08.183Z,20.4
2018-11-13T00:05:58.240Z,20.4
2018-11-13T00:06:48.295Z,20.4
2018-11-13T00:25:02.694Z,20.6
2018-11-13T00:25:52.471Z,20.6
2018-11-13T00:26:42.321Z,20.6
2018-11-13T00:27:32.691Z,20.6
2018-11-13T00:28:22.889Z,20.6
2018-11-13T00:29:12.981Z,20.6
2018-11-13T00:30:02.741Z,20.6
2018-11-13T00:30:52.904Z,20.6
2018-11-13T00:31:43.163Z,20.6
2018-11-13T00:32:32.913Z,20.6
2018-11-13T00:33:22.697Z,20.7
2018-11-13T00:34:13.284Z,20.7
2018-11-13T00:35:03.381Z,20.7
2018-11-13T00:35:53.434Z,20.7
2018-11-13T00:36:43.230Z,20.7
2018-11-13T00:37:33.270Z,20.7
2018-11-13T00:38:23.332Z,20.7
2018-11-13T00:39:13.144Z,20.7
2018-11-13T00:40:03.468Z,20.7
2018-11-13T00:40:53.530Z,20.7
2018-11-13T00:41:43.590Z,20.7
2018-11-13T00:42:33.907Z,20.8
2018-11-13T00:43:23.405Z,20.8
2018-11-13T00:44:13.765Z,20.8
2018-11-13T00:45:04.069Z,20.8
2018-11-13T00:45:55.913Z,20.8
2018-11-13T00:46:43.934Z,20.8
2018-11-13T00:47:34.292Z,20.8
2018-11-13T00:48:24.564Z,20.8
2018-11-13T00:49:14.412Z,20.8
2018-11-13T00:50:04.166Z,20.8
2018-11-13T00:50:54.662Z,20.8
2018-11-13T00:51:44.285Z,20.8
2018-11-13T00:52:34.356Z,20.8
2018-11-13T00:53:24.406Z,20.8
2018-11-13T00:54:14.751Z,20.8
2018-11-13T00:55:05.932Z,20.8
2018-11-13T00:55:54.902Z,20.8
2018-11-13T00:56:45.064Z,20.8
2018-11-13T00:57:34.704Z,20.8
2018-11-13T00:58:25.069Z,20.9
2018-11-13T00:59:15.242Z,20.9
2018-11-13T01:00:05.208Z,20.9
2018-11-13T01:00:56.216Z,20.9
2018-11-13T01:01:45.021Z,20.9
2018-11-13T01:02:35.363Z,20.9
2018-11-13T01:03:25.411Z,20.9
2018-11-13T01:04:15.478Z,20.9
2018-11-13T01:05:05.809Z,20.9
2018-11-13T01:05:55.176Z,20.9
2018-11-13T01:06:45.663Z,20.9
2018-11-13T01:07:35.828Z,20.9
2018-11-13T01:08:25.539Z,20.9
2018-11-13T01:09:15.555Z,20.9
2018-11-13T01:10:05.613Z,20.9
2018-11-13T01:10:55.662Z,20.9
2018-11-13T01:11:45.819Z,20.9
2018-11-13T01:12:36.057Z,20.9
2018-11-13T01:13:26.134Z,20.9
2018-11-13T01:14:16.181Z,20.9
2018-11-13T01:15:06.072Z,21
2018-11-13T01:15:56.300Z,20.9
2018-11-13T01:16:46.380Z,20.9
2018-11-13T01:17:36.135Z,20.9
2018-11-13T01:18:26.495Z,21
2018-11-13T01:19:16.557Z,21
2018-11-13T01:20:06.615Z,21
2018-11-13T01:20:56.913Z,21
2018-11-13T01:21:46.711Z,21
2018-11-13T01:22:37.492Z,21
2018-11-13T01:23:26.841Z,21
2018-11-13T01:24:17.964Z,21
2018-11-13T01:25:06.394Z,21
2018-11-13T01:25:57.029Z,21.1
2018-11-13T01:26:46.788Z,21
2018-11-13T01:27:37.140Z,21.1
2018-11-13T01:28:27.194Z,21.1
2018-11-13T01:29:17.222Z,21.1
2018-11-13T01:30:06.756Z,21.1
2018-11-13T01:30:57.379Z,21.1
2018-11-13T01:31:47.442Z,21.1
2018-11-13T01:32:37.494Z,21.1
2018-11-13T01:33:27.081Z,21.1
2018-11-13T01:34:17.348Z,21.1
2018-11-13T01:35:07.109Z,21.1
2018-11-13T01:35:57.788Z,21.1
2018-11-13T01:37:37.861Z,21.1
2018-11-13T01:38:27.916Z,21.1
2018-11-13T01:39:18.239Z,21.1
2018-11-13T01:49:18.692Z,21.2
2018-11-13T01:52:38.926Z,21.2
2018-11-13T01:53:28.710Z,21.2
2018-11-13T01:54:18.855Z,21.2
2018-11-13T01:55:08.820Z,21.2
2018-11-13T01:55:58.884Z,21.2
2018-11-13T01:56:49.216Z,21.2
2018-11-13T01:57:39.012Z,21.2
2018-11-13T01:58:28.780Z,21.2
2018-11-13T01:59:19.425Z,21.2
2018-11-13T02:00:09.464Z,21.2
2018-11-13T02:00:59.541Z,21.2
2018-11-13T02:01:49.836Z,21.2
2018-11-13T02:02:39.679Z,21.3
2018-11-13T02:03:29.704Z,21.3
2018-11-13T02:04:19.194Z,21.3
2018-11-13T02:05:09.824Z,21.3
2018-11-13T02:05:59.316Z,21.3
2018-11-13T02:06:49.377Z,21.3
2018-11-13T02:07:39.997Z,21.3
2018-11-13T02:08:29.776Z,21.3
2018-11-13T02:09:19.554Z,21.3
2018-11-13T02:10:10.194Z,21.3
2018-11-13T02:10:59.973Z,21.3
2018-11-13T02:11:50.263Z,21.3
2018-11-13T02:12:40.376Z,21.3
2018-11-13T02:13:29.856Z,21.3
2018-11-13T02:14:20.198Z,21.3
2018-11-13T02:15:10.255Z,21.3
2018-11-13T02:16:00.619Z,21.3
2018-11-13T02:16:50.381Z,21.3
2018-11-13T02:17:40.719Z,21.3
2018-11-13T02:18:30.493Z,21.3
2018-11-13T02:19:20.848Z,21.3
2018-11-13T02:20:10.331Z,21.3
2018-11-13T02:21:00.698Z,21.3
2018-11-13T02:21:51.003Z,21.4
2018-11-13T02:22:40.807Z,21.3
2018-11-13T02:23:31.148Z,21.4
2018-11-13T02:24:20.923Z,21.3
2018-11-13T02:25:11.270Z,21.4
2018-11-13T02:26:01.047Z,21.4
2018-11-13T02:26:51.393Z,21.4
2018-11-13T02:27:41.447Z,21.4
2018-11-13T02:28:31.222Z,21.3
2018-11-13T02:29:21.558Z,21.4
2018-11-13T02:30:11.611Z,21.4
2018-11-13T02:31:01.399Z,21.4
2018-11-13T02:31:51.480Z,21.4
2018-11-13T02:32:41.813Z,21.4
2018-11-13T02:33:31.565Z,21.4
2018-11-13T02:34:21.645Z,21.4
2018-11-13T02:35:12.119Z,21.4
2018-11-13T02:36:02.041Z,21.4
2018-11-13T02:36:52.105Z,21.4
2018-11-13T02:37:42.117Z,21.4
2018-11-13T02:38:31.957Z,21.4
2018-11-13T02:39:22.000Z,21.4
2018-11-13T02:40:12.355Z,21.4
2018-11-13T02:41:02.357Z,21.4
2018-11-13T02:41:52.174Z,21.4
2018-11-13T02:42:42.231Z,21.4
2018-11-13T02:43:32.292Z,21.4
2018-11-13T02:44:22.356Z,21.4
2018-11-13T02:45:12.413Z,21.4
2018-11-13T02:46:02.479Z,21.4
2018-11-13T02:46:52.828Z,21.4
2018-11-13T02:47:42.894Z,21.4
2018-11-13T02:48:32.661Z,21.4
2018-11-13T02:49:22.723Z,21.4
2018-11-13T02:50:12.496Z,21.4
2018-11-13T02:51:03.364Z,21.4
2018-11-13T02:51:53.164Z,21.4
2018-11-13T02:52:42.948Z,21.4
2018-11-13T02:53:32.719Z,21.4
2018-11-13T02:54:23.371Z,21.4
2018-11-13T02:55:13.121Z,21.4
2018-11-13T02:56:03.197Z,21.4
2018-11-13T02:56:53.254Z,21.5
2018-11-13T02:57:43.593Z,21.5
2018-11-13T02:58:33.658Z,21.4
2018-11-13T02:59:23.731Z,21.5
2018-11-13T03:00:13.483Z,21.5
2018-11-13T03:01:03.541Z,21.5
2018-11-13T03:01:53.693Z,21.5
2018-11-13T03:02:43.673Z,21.5
2018-11-13T03:03:33.736Z,21.5
2018-11-13T03:04:23.583Z,21.5
2018-11-13T03:05:14.382Z,21.5
2018-11-13T03:06:03.905Z,21.5
2018-11-13T03:06:53.968Z,21.6
2018-11-13T03:07:44.034Z,21.5
2018-11-13T03:08:34.075Z,21.5
2018-11-13T03:09:24.445Z,21.5
2018-11-13T03:10:14.210Z,21.5
2018-11-13T03:11:04.540Z,21.5
2018-11-13T03:11:54.614Z,21.5
2018-11-13T03:12:44.669Z,21.6
2018-11-13T03:13:34.506Z,21.6
2018-11-13T03:14:24.490Z,21.6
2018-11-13T03:15:14.807Z,21.6
2018-11-13T03:16:04.899Z,21.6
2018-11-13T03:16:54.954Z,21.6
2018-11-13T03:17:45.051Z,21.6
2018-11-13T03:18:35.102Z,21.6
2018-11-13T03:19:24.850Z,21.6
2018-11-13T03:20:14.910Z,21.6
2018-11-13T03:21:05.266Z,21.6
2018-11-13T03:21:55.037Z,21.6
2018-11-13T03:22:45.373Z,21.6
2018-11-13T03:23:35.163Z,21.6
2018-11-13T03:24:25.519Z,21.6
2018-11-13T03:25:15.278Z,21.6
2018-11-13T03:26:05.323Z,21.6
2018-11-13T03:26:55.104Z,21.6
2018-11-13T03:27:45.751Z,21.6
2018-11-13T03:28:35.514Z,21.6
2018-11-13T03:29:25.283Z,21.6
2018-11-13T03:30:15.630Z,21.6
2018-11-13T03:31:05.878Z,21.6
2018-11-13T03:31:56.043Z,21.6
2018-11-13T03:32:46.116Z,21.6
2018-11-13T03:33:35.868Z,21.6
2018-11-13T03:34:25.936Z,21.6
2018-11-13T03:35:15.996Z,21.6
2018-11-13T03:36:06.058Z,21.6
2018-11-13T03:36:56.101Z,21.6
2018-11-13T03:37:46.163Z,21.6
2018-11-13T03:38:36.516Z,21.6
2018-11-13T03:39:26.590Z,21.6
2018-11-13T03:40:16.634Z,21.6
2018-11-13T03:41:06.400Z,21.6
2018-11-13T03:41:56.468Z,21.6
2018-11-13T03:42:46.513Z,21.6
2018-11-13T03:43:36.869Z,21.6
2018-11-13T03:44:26.947Z,21.6
2018-11-13T03:45:16.713Z,21.6
2018-11-13T03:46:07.036Z,21.6
2018-11-13T03:46:57.110Z,21.7
2018-11-13T03:47:47.159Z,21.7
2018-11-13T03:48:37.200Z,21.7
2018-11-13T03:49:26.992Z,21.7
2018-11-13T03:50:16.765Z,21.7
2018-11-13T03:51:07.113Z,21.7
2018-11-13T03:51:57.468Z,21.7
2018-11-13T03:52:47.240Z,21.7
2018-11-13T03:53:37.592Z,21.7
2018-11-13T03:54:27.630Z,21.8
2018-11-13T03:55:17.411Z,21.8
2018-11-13T03:56:07.482Z,21.8
2018-11-13T03:56:57.862Z,21.8
2018-11-13T03:57:47.885Z,21.8
2018-11-13T03:58:37.962Z,21.8
2018-11-13T03:59:27.720Z,21.8
2018-11-13T04:00:18.128Z,21.8
2018-11-13T04:01:07.845Z,21.8
2018-11-13T04:01:57.607Z,21.8
2018-11-13T04:02:48.239Z,21.8
2018-11-13T04:03:38.019Z,21.8
2018-11-13T04:04:28.089Z,21.8
2018-11-13T04:05:18.429Z,21.8
2018-11-13T04:06:08.469Z,21.8
2018-11-13T04:06:58.242Z,21.8
2018-11-13T04:07:48.855Z,21.8
2018-11-13T04:08:38.857Z,21.8
2018-11-13T04:09:28.728Z,21.8
2018-11-13T04:10:18.493Z,21.8
2018-11-13T04:11:08.840Z,21.8
2018-11-13T04:11:58.896Z,21.8
2018-11-13T04:12:49.196Z,21.8
2018-11-13T04:13:38.724Z,21.8
2018-11-13T04:14:28.500Z,21.8
2018-11-13T04:15:19.151Z,21.8
2018-11-13T04:16:08.899Z,21.8
2018-11-13T04:16:58.958Z,21.8
2018-11-13T04:17:49.800Z,21.8
2018-11-13T04:18:39.373Z,21.8
2018-11-13T04:19:29.424Z,21.8
2018-11-13T04:20:19.205Z,21.8
2018-11-13T04:21:09.543Z,21.8
2018-11-13T04:21:59.285Z,21.8
2018-11-13T04:22:49.378Z,21.8
2018-11-13T04:23:39.742Z,21.8
2018-11-13T04:24:29.782Z,21.8
2018-11-13T04:25:19.854Z,21.8
2018-11-13T04:26:09.620Z,21.8
2018-11-13T04:26:59.673Z,21.8
2018-11-13T04:27:49.737Z,21.8
2018-11-13T04:28:39.795Z,21.8
2018-11-13T04:29:29.867Z,21.8
2018-11-13T04:30:20.225Z,21.8
2018-11-13T04:31:09.975Z,21.8
2018-11-13T04:32:00.325Z,21.8
2018-11-13T04:32:50.192Z,21.8
2018-11-13T04:33:40.433Z,21.8
2018-11-13T04:34:30.494Z,21.8
2018-11-13T04:35:20.273Z,21.8
2018-11-13T04:36:10.612Z,21.9
2018-11-13T04:37:00.676Z,21.9
2018-11-13T04:54:16.029Z,21.9
2018-11-13T04:55:06.078Z,21.9
2018-11-13T04:55:55.601Z,21.9
2018-11-13T04:56:45.946Z,21.9
2018-11-13T04:57:36.010Z,21.9
2018-11-13T04:58:25.773Z,21.9
2018-11-13T04:59:16.102Z,21.9
2018-11-13T05:00:06.152Z,21.9
2018-11-13T05:00:56.215Z,21.9
2018-11-13T05:01:46.288Z,21.9
2018-11-13T05:02:36.151Z,21.9
2018-11-13T05:03:25.918Z,21.9
2018-11-13T05:04:16.176Z,21.9
2018-11-13T05:05:06.485Z,22
2018-11-13T05:05:56.571Z,22
2018-11-13T05:06:46.363Z,21.9
2018-11-13T05:07:36.418Z,21.9
2018-11-13T05:08:26.472Z,21.9
2018-11-13T05:09:16.830Z,21.9
2018-11-13T05:10:07.024Z,21.9
2018-11-13T05:10:56.663Z,21.9
2018-11-13T05:11:46.425Z,21.9
2018-11-13T05:12:36.764Z,22
2018-11-13T05:13:26.825Z,22
2018-11-13T05:14:16.976Z,22
2018-11-13T05:15:06.945Z,22
2018-11-13T05:15:57.287Z,22
2018-11-13T05:16:47.075Z,22
2018-11-13T05:17:37.420Z,22
2018-11-13T05:18:27.478Z,22
2018-11-13T05:19:16.963Z,21.9
2018-11-13T05:20:07.305Z,22
2018-11-13T05:20:57.379Z,21.9
2018-11-13T05:21:47.712Z,21.9
2018-11-13T05:22:37.204Z,21.9
2018-11-13T05:23:27.541Z,21.9
2018-11-13T05:24:17.618Z,21.9
2018-11-13T05:25:07.905Z,21.9
2018-11-13T05:25:57.717Z,21.9
2018-11-13T05:26:48.062Z,21.9
2018-11-13T05:27:37.850Z,21.9
2018-11-13T05:28:27.917Z,21.9
2018-11-13T05:29:18.257Z,21.9
2018-11-13T05:30:08.269Z,21.9
2018-11-13T05:30:57.887Z,21.9
2018-11-13T05:31:48.149Z,21.9
2018-11-13T05:32:37.924Z,21.9
2018-11-13T05:33:28.557Z,21.9
2018-11-13T05:34:18.609Z,21.9
2018-11-13T05:35:08.484Z,21.9
2018-11-13T05:35:58.152Z,21.9
2018-11-13T05:36:48.508Z,21.9
2018-11-13T05:37:38.566Z,21.9
2018-11-13T05:38:28.611Z,21.9
2018-11-13T05:39:18.701Z,21.9
2018-11-13T05:40:08.999Z,21.9
2018-11-13T05:40:58.810Z,21.9
2018-11-13T05:41:48.947Z,21.9
2018-11-13T05:42:39.208Z,21.9
2018-11-13T05:43:28.989Z,21.9
2018-11-13T05:44:18.746Z,21.9
2018-11-13T05:45:09.109Z,21.9
2018-11-13T05:45:59.114Z,21.9
2018-11-13T05:46:49.223Z,21.9
2018-11-13T05:47:39.548Z,21.9
2018-11-13T05:48:29.347Z,21.9
2018-11-13T05:49:19.103Z,21.9
2018-11-13T05:50:09.464Z,21.9
2018-11-13T05:50:59.515Z,21.9
2018-11-13T05:51:49.286Z,21.9
2018-11-13T05:52:39.348Z,21.9
2018-11-13T05:53:29.700Z,21.9
2018-11-13T05:54:20.041Z,21.9
2018-11-13T05:55:10.088Z,21.9
2018-11-13T05:55:59.875Z,21.9
2018-11-13T05:56:50.234Z,21.9
2018-11-13T05:57:40.289Z,21.9
2018-11-13T05:58:30.053Z,21.9
2018-11-13T05:59:20.119Z,21.9
2018-11-13T06:00:09.873Z,21.9
2018-11-13T06:00:59.933Z,21.9
2018-11-13T06:01:50.293Z,21.9
2018-11-13T06:02:40.334Z,21.9
2018-11-13T06:03:30.202Z,21.9
2018-11-13T06:04:20.738Z,21.9
2018-11-13T06:05:10.521Z,21.9
2018-11-13T06:06:00.870Z,21.9
2018-11-13T06:06:51.184Z,21.9
2018-11-13T06:07:40.786Z,21.9
2018-11-13T06:08:30.827Z,21.9
2018-11-13T06:09:21.097Z,21.9
2018-11-13T06:10:11.172Z,21.9
2018-11-13T06:11:00.934Z,21.9
2018-11-13T06:11:51.274Z,21.9
2018-11-13T06:12:41.064Z,21.9
2018-11-13T06:13:31.132Z,21.9
2018-11-13T06:14:21.475Z,21.9
2018-11-13T06:15:11.537Z,21.9
2018-11-13T06:16:01.304Z,21.9
2018-11-13T06:16:51.069Z,21.9
2018-11-13T06:17:41.446Z,21.9
2018-11-13T06:18:31.477Z,21.9
2018-11-13T06:19:21.243Z,21.9
2018-11-13T06:20:11.599Z,21.9
2018-11-13T06:21:01.936Z,21.9
2018-11-13T06:21:51.996Z,21.9
2018-11-13T06:22:42.334Z,21.9
2018-11-13T06:23:32.133Z,21.9
2018-11-13T06:24:21.909Z,21.9
2018-11-13T06:25:11.936Z,21.9
2018-11-13T06:26:02.285Z,21.9
2018-11-13T06:26:52.081Z,21.9
2018-11-13T06:27:41.838Z,21.9
2018-11-13T06:28:32.194Z,21.9
2018-11-13T06:29:22.563Z,21.9
2018-11-13T06:30:12.593Z,22
2018-11-13T06:31:02.642Z,22
2018-11-13T06:31:52.698Z,22
2018-11-13T06:32:42.489Z,22
2018-11-13T06:33:32.850Z,22
2018-11-13T06:34:22.309Z,22
2018-11-13T06:35:12.667Z,22
2018-11-13T06:36:03.005Z,22
2018-11-13T06:36:52.785Z,22
2018-11-13T06:37:43.110Z,22
2018-11-13T06:38:32.942Z,22
2018-11-13T06:39:22.665Z,22
2018-11-13T06:40:13.303Z,22.1
2018-11-13T06:41:03.360Z,22
2018-11-13T06:41:53.137Z,22
2018-11-13T06:42:43.484Z,22
2018-11-13T06:43:33.257Z,22.1
2018-11-13T06:44:23.302Z,22.1
2018-11-13T06:45:13.362Z,22.1
2018-11-13T06:46:03.701Z,22.1
2018-11-13T06:46:53.479Z,22.1
2018-11-13T06:47:43.558Z,22.1
2018-11-13T06:48:33.594Z,22.1
2018-11-13T06:49:24.146Z,22.1
2018-11-13T06:50:14.029Z,22.1
2018-11-13T06:51:04.338Z,22.1
2018-11-13T06:51:54.104Z,22.1
2018-11-13T06:52:43.911Z,22.1
2018-11-13T06:53:33.674Z,22.1
2018-11-13T06:54:24.024Z,22.1
2018-11-13T06:55:14.088Z,22.1
2018-11-13T06:56:04.145Z,22.2
2018-11-13T06:56:54.488Z,22.1
2018-11-13T06:57:44.552Z,22.1
2018-11-13T06:58:34.273Z,22.1
2018-11-13T06:59:24.385Z,22.1
2018-11-13T07:00:14.444Z,22.2
2018-11-13T07:01:04.205Z,22.2
2018-11-13T07:01:54.570Z,22.2
2018-11-13T07:02:44.618Z,22.2
2018-11-13T07:03:34.685Z,22.2
2018-11-13T07:04:25.035Z,22.2
2018-11-13T07:05:15.191Z,22.2
2018-11-13T07:06:04.645Z,22.2
2018-11-13T07:06:55.203Z,22.2
2018-11-13T07:07:44.982Z,22.2
2018-11-13T07:08:35.021Z,22.2
2018-11-13T07:09:24.804Z,22.2
2018-11-13T07:10:15.433Z,22.2
2018-11-13T07:11:05.232Z,22.2
2018-11-13T07:11:55.269Z,22.2
2018-11-13T07:12:45.323Z,22.2
2018-11-13T07:13:35.096Z,22.2
2018-11-13T07:14:25.453Z,22.2
2018-11-13T07:15:15.508Z,22.2
2018-11-13T07:16:05.865Z,22.2
2018-11-13T07:16:55.913Z,22.2
2018-11-13T07:17:45.770Z,22.2
2018-11-13T07:18:35.569Z,22.2
2018-11-13T07:19:25.810Z,22.2
2018-11-13T07:20:15.871Z,22.2
2018-11-13T07:21:05.929Z,22.2
2018-11-13T07:21:55.777Z,22.2
2018-11-13T07:22:45.750Z,22.2
2018-11-13T07:23:36.405Z,22.2
2018-11-13T07:24:26.447Z,22.2
2018-11-13T07:25:16.060Z,22.3
2018-11-13T07:26:06.293Z,22.3
2018-11-13T07:26:56.413Z,22.2
2018-11-13T07:27:46.593Z,22.3
2018-11-13T07:28:36.460Z,22.3
2018-11-13T07:29:26.799Z,22.2
2018-11-13T07:30:16.872Z,22.3
2018-11-13T07:31:06.940Z,22.3
2018-11-13T07:31:56.787Z,22.3
2018-11-13T07:32:47.047Z,22.2
2018-11-13T07:33:36.829Z,22.2
2018-11-13T07:34:27.057Z,22.3
2018-11-13T07:35:17.232Z,22.3
2018-11-13T07:36:06.712Z,22.2
2018-11-13T07:36:57.329Z,22.3
2018-11-13T07:37:47.387Z,22.3
2018-11-13T07:38:37.159Z,22.2
2018-11-13T07:39:27.526Z,22.2
2018-11-13T07:40:17.582Z,22.3
2018-11-13T07:41:07.128Z,22.3
2018-11-13T07:41:57.402Z,22.3
2018-11-13T07:42:47.760Z,22.3
2018-11-13T07:43:37.523Z,22.3
2018-11-13T07:44:27.289Z,22.3
2018-11-13T07:45:17.918Z,22.2
2018-11-13T07:46:07.976Z,22.3
2018-11-13T07:46:58.341Z,22.3
2018-11-13T07:47:48.916Z,22.3
2018-11-13T07:48:38.166Z,22.3
2018-11-13T07:49:27.931Z,22.3
2018-11-13T07:50:18.268Z,22.3
2018-11-13T07:51:08.517Z,22.3
2018-11-13T07:51:58.637Z,22.2
2018-11-13T07:52:48.450Z,22.2
2018-11-13T07:53:38.275Z,22.3
2018-11-13T07:54:28.681Z,22.3
2018-11-13T07:55:18.344Z,22.2
2018-11-13T07:56:08.746Z,22.2
2018-11-13T07:56:58.753Z,22.3
2018-11-13T07:57:48.821Z,22.2
2018-11-13T07:58:39.018Z,22.2
2018-11-13T07:59:28.650Z,22.2
2018-11-13T08:00:18.987Z,22.3
2018-11-13T08:01:09.106Z,22.2
2018-11-13T08:01:58.627Z,22.2
2018-11-13T08:02:48.871Z,22.3
2018-11-13T08:03:39.407Z,22.3
2018-11-13T08:04:29.002Z,22.2
2018-11-13T08:05:19.390Z,22.2
2018-11-13T08:06:09.241Z,22.2
2018-11-13T08:06:59.463Z,22.2
2018-11-13T08:07:49.515Z,22.2
2018-11-13T08:08:39.287Z,22.2
2018-11-13T08:09:29.950Z,22.2
2018-11-13T08:10:19.439Z,22.2
2018-11-13T08:11:09.472Z,22.2
2018-11-13T08:11:59.550Z,22.2
2018-11-13T08:12:50.289Z,22.2
2018-11-13T08:13:40.282Z,22.2
2018-11-13T08:14:29.997Z,22.2
2018-11-13T08:15:19.781Z,22.2
2018-11-13T08:16:09.836Z,22.2
2018-11-13T08:17:00.182Z,22.3
2018-11-13T08:17:49.949Z,22.2
2018-11-13T08:18:40.014Z,22.2
2018-11-13T08:19:30.069Z,22.2
2018-11-13T08:20:20.144Z,22.2
2018-11-13T08:21:10.710Z,22.2
2018-11-13T08:22:00.372Z,22.2
2018-11-13T08:22:50.599Z,22.2
2018-11-13T08:23:40.648Z,22.2
2018-11-13T08:24:30.731Z,22.2
2018-11-13T08:25:21.127Z,22.2
2018-11-13T08:26:10.880Z,22.2
2018-11-13T08:27:01.002Z,22.2
2018-11-13T08:27:50.975Z,22.2
2018-11-13T08:28:41.152Z,22.2
2018-11-13T08:29:31.258Z,22.2
2018-11-13T08:30:20.574Z,22.2
2018-11-13T08:31:11.456Z,22.2
2018-11-13T08:32:01.270Z,22.2
2018-11-13T08:32:51.313Z,22.2
2018-11-13T08:33:41.380Z,22.2
2018-11-13T08:34:31.146Z,22.1
2018-11-13T08:35:21.226Z,22.2
2018-11-13T08:36:11.320Z,22.1
2018-11-13T08:37:01.627Z,22.2
2018-11-13T08:37:51.677Z,22.2
2018-11-13T08:38:41.735Z,22.1
2018-11-13T08:39:31.507Z,22.1
2018-11-13T08:40:21.866Z,22.1
2018-11-13T08:41:11.919Z,22.1
2018-11-13T08:42:01.701Z,22.1
2018-11-13T08:42:52.032Z,22.1
2018-11-13T08:43:42.251Z,22.1
2018-11-13T08:44:31.879Z,22.1
2018-11-13T08:45:22.206Z,22.1
2018-11-13T08:46:12.283Z,22.1
2018-11-13T08:47:02.339Z,22.1
2018-11-13T08:47:52.400Z,22.1
2018-11-13T08:48:41.886Z,22.1
2018-11-13T08:49:32.535Z,22.1
2018-11-13T08:50:22.572Z,22.1
2018-11-13T08:51:12.646Z,22.1
2018-11-13T08:52:02.423Z,22.1
2018-11-13T08:52:52.761Z,22.1
2018-11-13T09:08:43.583Z,22.1
2018-11-13T09:09:33.847Z,22.1
2018-11-13T09:10:23.635Z,22.1
2018-11-13T09:11:13.477Z,22.1
2018-11-13T09:12:04.065Z,22.1
2018-11-13T09:12:53.549Z,22.1
2018-11-13T09:13:44.131Z,22.1
2018-11-13T09:14:33.649Z,22.1
2018-11-13T09:15:23.719Z,22.1
2018-11-13T09:16:13.768Z,22.1
2018-11-13T09:17:03.829Z,22.1
2018-11-13T09:17:53.897Z,22.1
2018-11-13T09:18:44.552Z,22
2018-11-13T09:19:35.656Z,22.1
2018-11-13T09:20:23.767Z,22
2018-11-13T09:21:14.120Z,22.1
2018-11-13T09:22:04.461Z,22
2018-11-13T09:22:54.263Z,22.1
2018-11-13T09:23:44.616Z,22
2018-11-13T09:24:34.371Z,22
2018-11-13T09:25:24.733Z,22
2018-11-13T09:26:14.739Z,22
2018-11-13T09:27:04.838Z,22
2018-11-13T09:27:54.606Z,22
2018-11-13T09:28:44.665Z,22
2018-11-13T09:29:34.735Z,22
2018-11-13T09:30:25.223Z,22
2018-11-13T09:31:15.261Z,22
2018-11-13T09:32:04.906Z,22
2018-11-13T09:32:55.342Z,22
2018-11-13T09:33:45.311Z,22
2018-11-13T09:34:35.041Z,22
2018-11-13T09:35:25.454Z,22
2018-11-13T09:36:15.197Z,22
2018-11-13T09:37:04.977Z,22
2018-11-13T09:37:55.313Z,21.9
2018-11-13T09:38:45.655Z,22
2018-11-13T09:39:35.727Z,22
2018-11-13T09:40:25.802Z,21.9
2018-11-13T09:41:15.844Z,22
2018-11-13T09:42:05.630Z,22
2018-11-13T09:42:55.689Z,21.9
2018-11-13T09:43:46.052Z,21.9
2018-11-13T09:44:35.812Z,22
2018-11-13T09:45:26.168Z,22
2018-11-13T09:46:16.263Z,22
2018-11-13T09:47:05.982Z,22
2018-11-13T09:47:56.490Z,21.9
2018-11-13T09:48:46.377Z,21.9
2018-11-13T09:49:36.440Z,22
2018-11-13T09:50:26.235Z,22
2018-11-13T09:51:16.277Z,21.9
2018-11-13T09:52:06.630Z,22
2018-11-13T09:52:56.409Z,21.9
2018-11-13T09:53:47.130Z,21.9
2018-11-13T09:54:36.792Z,21.9
2018-11-13T09:55:26.923Z,21.9
2018-11-13T09:56:16.362Z,21.9
2018-11-13T09:57:06.701Z,21.9
2018-11-13T09:57:56.752Z,22
2018-11-13T09:58:47.126Z,21.9
2018-11-13T09:59:36.888Z,21.9
2018-11-13T10:00:27.437Z,21.9
2018-11-13T10:01:18.596Z,21.9
2018-11-13T10:02:08.991Z,21.9
2018-11-13T10:02:58.922Z,21.9
2018-11-13T10:03:47.848Z,21.9
2018-11-13T10:04:37.940Z,21.9
2018-11-13T10:05:27.688Z,21.9
2018-11-13T10:06:17.894Z,21.9
2018-11-13T10:07:07.129Z,21.9
2018-11-13T10:07:57.766Z,21.9
2018-11-13T10:08:47.243Z,21.9
2018-11-13T10:09:37.303Z,21.9
2018-11-13T10:10:28.001Z,21.9
2018-11-13T10:11:17.508Z,21.9
2018-11-13T10:12:07.779Z,21.9
2018-11-13T10:12:58.122Z,21.9
2018-11-13T10:13:48.183Z,21.9
2018-11-13T10:14:38.239Z,21.9
2018-11-13T10:15:28.298Z,21.9
2018-11-13T10:16:18.352Z,21.9
2018-11-13T10:17:08.615Z,21.9
2018-11-13T10:17:59.150Z,21.9
2018-11-13T10:18:48.565Z,21.9
2018-11-13T10:19:38.308Z,21.9
2018-11-13T10:20:28.175Z,21.9
2018-11-13T10:21:18.725Z,21.9
2018-11-13T10:22:08.519Z,21.9
2018-11-13T10:22:58.545Z,21.9
2018-11-13T10:23:48.624Z,21.9
2018-11-13T10:24:38.667Z,21.9
2018-11-13T10:25:29.020Z,21.9
2018-11-13T10:26:19.117Z,21.9
2018-11-13T10:27:09.344Z,21.9
2018-11-13T10:27:58.923Z,21.9
2018-11-13T10:28:49.244Z,21.9
2018-11-13T10:29:39.324Z,21.9
2018-11-13T10:30:29.369Z,21.9
2018-11-13T10:31:19.159Z,21.9
2018-11-13T10:32:09.220Z,21.9
2018-11-13T10:32:59.550Z,21.8
2018-11-13T10:33:49.621Z,21.9
2018-11-13T10:34:39.388Z,21.9
2018-11-13T10:35:29.455Z,21.9
2018-11-13T10:36:19.524Z,21.9
2018-11-13T10:37:09.862Z,21.8
2018-11-13T10:37:59.634Z,21.9
2018-11-13T10:38:49.701Z,21.9
2018-11-13T10:39:40.041Z,21.8
2018-11-13T10:40:30.720Z,21.9
2018-11-13T10:41:20.038Z,21.8
2018-11-13T10:42:09.935Z,21.9
2018-11-13T10:42:59.994Z,21.8
2018-11-13T10:43:50.059Z,21.8
2018-11-13T10:44:40.404Z,21.8
2018-11-13T10:45:30.468Z,21.8
2018-11-13T10:46:20.223Z,21.8
2018-11-13T10:47:10.394Z,21.8
2018-11-13T10:48:00.061Z,21.8
2018-11-13T10:48:50.783Z,21.8
2018-11-13T10:49:40.468Z,21.8
2018-11-13T10:50:31.055Z,21.8
2018-11-13T10:51:20.884Z,21.8
2018-11-13T10:52:10.648Z,21.8
2018-11-13T10:53:00.774Z,21.8
2018-11-13T10:53:50.773Z,21.8
2018-11-13T10:54:41.125Z,21.8
2018-11-13T10:55:31.183Z,21.8
2018-11-13T10:56:21.368Z,21.8
2018-11-13T10:57:11.008Z,21.8
2018-11-13T10:58:01.362Z,21.8
2018-11-13T10:58:51.130Z,21.8
2018-11-13T10:59:41.505Z,21.8
2018-11-13T11:00:31.545Z,21.8
2018-11-13T11:01:21.314Z,21.8
2018-11-13T11:02:11.118Z,21.8
2018-11-13T11:03:01.686Z,21.8
2018-11-13T11:03:51.785Z,21.8
2018-11-13T11:04:41.830Z,21.8
2018-11-13T11:05:31.892Z,21.8
2018-11-13T11:06:21.952Z,21.8
2018-11-13T11:07:12.012Z,21.8
2018-11-13T11:08:02.083Z,21.8
2018-11-13T11:08:51.559Z,21.7
2018-11-13T11:09:41.719Z,21.7
2018-11-13T11:10:31.964Z,21.7
2018-11-13T11:11:22.423Z,21.8
2018-11-13T11:12:12.087Z,21.7
2018-11-13T11:13:02.433Z,21.7
2018-11-13T11:13:52.995Z,21.7
2018-11-13T11:14:42.568Z,21.7
2018-11-13T11:15:32.623Z,21.7
2018-11-13T11:16:22.391Z,21.7
2018-11-13T11:17:12.766Z,21.7
2018-11-13T11:18:02.941Z,21.7
2018-11-13T11:18:52.822Z,21.7
2018-11-13T11:19:42.644Z,21.7
2018-11-13T11:20:32.971Z,21.7
2018-11-13T11:21:22.760Z,21.7
2018-11-13T11:22:12.912Z,21.7
2018-11-13T11:23:02.990Z,21.7
2018-11-13T11:23:53.385Z,21.7
2018-11-13T11:24:43.283Z,21.6
2018-11-13T11:25:32.776Z,21.7
2018-11-13T11:26:23.194Z,21.7
2018-11-13T11:27:12.883Z,21.7
2018-11-13T11:28:02.958Z,21.7
2018-11-13T11:28:53.288Z,21.7
2018-11-13T11:29:43.651Z,21.6
2018-11-13T11:30:33.425Z,21.6
2018-11-13T11:31:23.781Z,21.6
2018-11-13T11:32:13.541Z,21.7
2018-11-13T11:33:03.595Z,21.6
2018-11-13T11:33:53.938Z,21.6
2018-11-13T11:34:43.720Z,21.6
2018-11-13T11:35:33.767Z,21.6
2018-11-13T11:36:23.545Z,21.6
2018-11-13T11:37:14.178Z,21.6
2018-11-13T11:38:04.200Z,21.6
2018-11-13T11:38:55.047Z,21.6
2018-11-13T11:39:44.363Z,21.6
2018-11-13T11:40:34.421Z,21.6
2018-11-13T11:41:24.189Z,21.6
2018-11-13T11:42:14.250Z,21.6
2018-11-13T11:43:04.312Z,21.6
2018-11-13T11:43:54.652Z,21.6
2018-11-13T11:44:44.727Z,21.6
2018-11-13T11:45:34.797Z,21.6
2018-11-13T11:46:24.852Z,21.6
2018-11-13T11:47:14.327Z,21.6
2018-11-13T11:48:04.992Z,21.6
2018-11-13T11:48:54.732Z,21.6
2018-11-13T11:49:45.077Z,21.6
2018-11-13T11:50:35.139Z,21.6
2018-11-13T11:51:24.911Z,21.6
2018-11-13T11:52:14.687Z,21.6
2018-11-13T11:53:05.317Z,21.6
2018-11-13T11:53:55.821Z,21.6
2018-11-13T11:54:45.168Z,21.6
2018-11-13T11:55:35.221Z,21.6
2018-11-13T11:56:25.585Z,21.6
2018-11-13T11:57:15.629Z,21.6
2018-11-13T11:58:05.708Z,21.6
2018-11-13T11:58:55.469Z,21.6
2018-11-13T11:59:45.229Z,21.6
2018-11-13T12:00:35.763Z,21.5
2018-11-13T12:01:25.344Z,21.5
2018-11-13T12:02:15.792Z,21.6
2018-11-13T12:03:05.824Z,21.5
2018-11-13T12:03:56.123Z,21.5
2018-11-13T12:04:46.244Z,21.5
2018-11-13T12:05:35.940Z,21.5
2018-11-13T12:06:25.995Z,21.5
2018-11-13T12:07:15.778Z,21.5
2018-11-13T12:08:06.126Z,21.5
2018-11-13T12:08:56.177Z,21.5
2018-11-13T12:09:46.530Z,21.5
2018-11-13T12:10:36.539Z,21.5
2018-11-13T12:11:26.075Z,21.5